Time;durP1;ratioP1;P1;durP2;ratioP2;P2;SDS_P1;SDS_P2;PMS_P1;PMS_P2;Temp;Humidity;BMP_temperature;BMP_pressure;BME280_temperature;BME280_humidity;BME280_pressure;Samples;Min_cycle;Max_cycle;Signal;HPM_P1;HPM_P2
2021/06/09 00:02:14;;;;;;;1999.90;999.90;;;;;;;19.77;51.59;101731.03;15656289;28;20281;-61
2021/06/09 00:09:47;;;;;;;1999.90;999.90;;;;;;;19.71;51.91;101726.88;15673397;28;20037;-60
2021/06/09 00:17:18;;;;;;;1999.90;999.90;;;;;;;19.45;51.55;101722.63;15673796;28;20135;-62
2021/06/09 00:24:51;;;;;;;1999.90;999.90;;;;;;;19.27;52.51;101730.69;15673285;28;20482;-61
2021/06/09 00:32:23;;;;;;;1999.90;999.90;;;;;;;19.07;53.01;101719.69;15674257;28;20052;-61
2021/06/09 00:39:56;;;;;;;1999.90;999.90;;;;;;;19.03;53.09;101725.25;15656518;28;20056;-61
2021/06/09 00:47:28;;;;;;;1999.90;999.90;;;;;;;18.98;51.70;101728.38;15673022;28;20045;-61
2021/06/09 00:55:01;;;;;;;1999.90;999.90;;;;;;;18.99;53.48;101733.66;15666913;22;20037;-63
2021/06/09 01:02:32;;;;;;;1999.90;999.90;;;;;;;19.06;54.73;101733.00;15552294;28;20069;-64
2021/06/09 01:10:07;;;;;;;1999.90;999.90;;;;;;;19.12;55.29;101730.72;15536321;28;20415;-63
2021/06/09 01:17:39;;;;;;;1999.90;999.90;;;;;;;18.90;55.39;101727.38;15538534;28;20034;-65
2021/06/09 01:25:13;;;;;;;1999.90;999.90;;;;;;;18.69;56.18;101724.00;15552255;28;20481;-65
2021/06/09 01:32:45;;;;;;;1999.90;999.90;;;;;;;18.50;56.14;101721.84;15557797;28;20050;-64
2021/06/09 01:40:20;;;;;;;1999.90;999.90;;;;;;;18.29;57.51;101730.56;15564947;28;20151;-65
2021/06/09 01:47:53;;;;;;;1999.90;999.90;;;;;;;18.08;57.69;101735.63;15543629;28;20057;-65
2021/06/09 01:55:26;;;;;;;1999.90;999.90;;;;;;;17.90;58.44;101718.16;15561516;28;20073;-65
2021/06/09 02:02:59;;;;;;;1999.90;999.90;;;;;;;17.66;58.66;101713.38;15563569;28;20322;-65
2021/06/09 02:10:32;;;;;;;1999.90;999.90;;;;;;;17.44;59.34;101711.91;15563733;28;20057;-65
2021/06/09 02:18:09;;;;;;;1999.90;999.90;;;;;;;17.30;60.01;101711.47;15562377;28;20161;-65
2021/06/09 02:25:43;;;;;;;1999.90;999.90;;;;;;;17.21;60.39;101720.06;15561817;28;20069;-64
2021/06/09 02:33:16;;;;;;;1999.90;999.90;;;;;;;17.07;61.10;101719.59;15560980;28;20050;-65
2021/06/09 02:40:51;;;;;;;1999.90;999.90;;;;;;;16.92;60.29;101711.84;15518877;28;20049;-65
2021/06/09 02:48:26;;;;;;;1999.90;999.90;;;;;;;16.77;61.48;101719.00;15558710;28;20033;-65
2021/06/09 02:56:11;;;;;;;1999.90;999.90;;;;;;;16.58;63.00;101716.72;15558899;28;20069;-66
2021/06/09 03:03:46;;;;;;;1999.90;999.90;;;;;;;16.43;64.31;101714.56;15559628;28;20490;-65
2021/06/09 03:11:28;;;;;;;1999.90;999.90;;;;;;;16.44;64.04;101716.22;15557729;28;20040;-63
2021/06/09 03:19:04;;;;;;;1999.90;999.90;;;;;;;16.44;64.71;101721.84;15558182;28;20139;-64
2021/06/09 03:26:43;;;;;;;1999.90;999.90;;;;;;;16.36;65.14;101715.16;15556791;28;20077;-63
2021/06/09 03:34:18;;;;;;;1999.90;999.90;;;;;;;16.62;64.40;101706.38;15557369;28;20474;-63
2021/06/09 03:41:54;;;;;;;1999.90;999.90;;;;;;;16.42;66.08;101698.84;15557125;28;20050;-64
2021/06/09 03:49:27;;;;;;;1999.90;999.90;;;;;;;16.72;66.04;101702.31;15556024;28;20042;-64
2021/06/09 03:57:02;;;;;;;1999.90;999.90;;;;;;;16.93;65.87;101708.69;15554776;28;20399;-63
2021/06/09 04:04:35;;;;;;;1999.90;999.90;;;;;;;17.18;65.32;101701.00;15559420;28;20060;-65
2021/06/09 04:12:10;;;;;;;1999.90;999.90;;;;;;;17.52;64.74;101705.31;15560542;28;20076;-65
2021/06/09 04:19:43;;;;;;;1999.90;999.90;;;;;;;17.72;65.47;101712.00;15535715;28;20050;-62
2021/06/09 04:27:20;;;;;;;1999.90;999.90;;;;;;;18.08;64.99;101707.38;15556641;28;20501;-65
2021/06/09 04:34:53;;;;;;;1999.90;999.90;;;;;;;18.28;64.71;101711.16;15550597;28;20057;-64
2021/06/09 04:42:26;;;;;;;;;;;;;;;18.69;62.41;101712.69;15555478;28;20042;-65
2021/06/09 04:49:58;;;;;;;1999.90;999.90;;;;;;;19.03;60.51;101711.13;15553342;28;19921;-64
2021/06/09 04:57:31;;;;;;;1999.90;999.90;;;;;;;19.49;57.75;101712.22;15554530;28;20038;-66
2021/06/09 05:05:03;;;;;;;1999.90;999.90;;;;;;;19.96;56.42;101724.56;15542968;28;20081;-62
2021/06/09 05:12:42;;;;;;;1999.90;999.90;;;;;;;20.46;55.04;101721.56;15565641;28;20037;-62
2021/06/09 05:20:20;;;;;;;1999.90;999.90;;;;;;;21.03;53.81;101711.19;15566045;28;20069;-62
2021/06/09 05:27:54;;;;;;;1999.90;999.90;;;;;;;21.63;51.51;101721.03;15565986;28;20357;-63
2021/06/09 05:35:26;;;;;;;1999.90;999.90;;;;;;;22.27;50.20;101725.50;15567226;28;20103;-64
2021/06/09 05:42:59;;;;;;;1999.90;999.90;;;;;;;22.29;45.56;101727.97;15565033;28;20074;-62
2021/06/09 05:50:31;;;;;;;;;;;;;;;23.25;46.32;101723.19;15567795;28;20054;-65
2021/06/09 05:58:08;;;;;;;1999.90;999.90;;;;;;;23.63;46.09;101730.38;15563347;28;19921;-62
2021/06/09 06:05:42;;;;;;;1999.90;999.90;;;;;;;23.90;46.96;101730.94;15564444;28;20502;-61
2021/06/09 06:13:16;;;;;;;1999.90;999.90;;;;;;;24.16;42.96;101730.59;15564837;28;20200;-63
2021/06/09 06:20:47;;;;;;;1999.90;999.90;;;;;;;24.68;42.42;101733.19;15562421;28;20042;-59
2021/06/09 06:28:21;;;;;;;1999.90;999.90;;;;;;;24.89;41.25;101740.97;15564843;28;20075;-60
2021/06/09 06:35:56;;;;;;;1999.90;999.90;;;;;;;25.51;41.06;101741.34;15563916;28;20049;-63
2021/06/09 06:43:30;;;;;;;1999.90;999.90;;;;;;;24.97;40.39;101736.91;15545741;28;20061;-59
2021/06/09 06:51:02;;;;;;;1999.90;999.90;;;;;;;25.88;38.23;101740.06;15560240;28;20052;-61
2021/06/09 06:58:36;;;;;;;1999.90;999.90;;;;;;;26.87;36.99;101738.69;15543375;28;20128;-62
2021/06/09 07:06:09;;;;;;;1999.90;999.90;;;;;;;26.77;39.15;101746.13;15559995;28;20038;-61
2021/06/09 07:13:42;;;;;;;;;;;;;;;28.14;36.53;101743.56;15560066;28;20061;-62
2021/06/09 07:21:15;;;;;;;1999.90;999.90;;;;;;;27.27;37.02;101756.38;15527600;28;20288;-62
2021/06/09 07:28:51;;;;;;;1999.90;999.90;;;;;;;28.86;35.03;101749.09;15497303;28;20049;-62
2021/06/09 07:36:26;;;;;;;1999.90;999.90;;;;;;;27.20;33.90;101757.28;15497050;28;20042;-63
2021/06/09 07:44:03;;;;;;;1999.90;999.90;;;;;;;28.71;33.66;101745.63;15497605;28;20046;-63
2021/06/09 07:51:36;;;;;;;1999.90;999.90;;;;;;;29.03;33.38;101748.84;15495415;28;20046;-62
2021/06/09 07:59:11;;;;;;;1999.90;999.90;;;;;;;29.02;33.13;101738.59;15495278;28;20042;-62
2021/06/09 08:06:44;;;;;;;1999.90;999.90;;;;;;;29.01;31.95;101745.59;15496602;28;20563;-62
2021/06/09 08:14:17;;;;;;;1999.90;999.90;;;;;;;30.20;30.99;101750.72;15495374;28;20105;-62
2021/06/09 08:21:49;;;;;;;1999.90;999.90;;;;;;;29.63;32.94;101751.91;15494355;28;20043;-62
2021/06/09 08:29:22;;;;;;;1999.90;999.90;;;;;;;29.78;31.45;101741.72;15496962;28;20066;-63
2021/06/09 08:36:55;;;;;;;1999.90;999.90;;;;;;;30.08;31.27;101742.78;15495007;28;20536;-63
2021/06/09 08:44:28;;;;;;;1999.90;999.90;;;;;;;30.12;30.72;101743.53;15493568;28;20049;-63
2021/06/09 08:52:02;;;;;;;1999.90;999.90;;;;;;;30.49;29.93;101732.81;15494916;28;20047;-62
2021/06/09 08:59:36;;;;;;;1999.90;999.90;;;;;;;30.77;30.36;101745.78;15494706;28;20046;-63
2021/06/09 09:07:10;;;;;;;1999.90;999.90;;;;;;;31.72;28.77;101750.28;15494166;28;20047;-63
2021/06/09 09:14:42;;;;;;;1999.90;999.90;;;;;;;31.59;31.85;101742.41;15492848;28;20044;-63
2021/06/09 09:22:18;;;;;;;1999.90;999.90;;;;;;;32.14;31.47;101748.25;15492283;28;20129;-63
2021/06/09 09:30:02;;;;;;;1999.90;999.90;;;;;;;32.96;29.27;101739.91;15491823;28;20051;-62
2021/06/09 09:37:34;;;;;;;1999.90;999.90;;;;;;;32.32;27.78;101744.84;15492725;28;20466;-62
2021/06/09 09:45:20;;;;;;;1999.90;999.90;;;;;;;33.72;27.87;101742.59;15491466;28;20461;-62
2021/06/09 09:52:52;;;;;;;1999.90;999.90;;;;;;;34.43;27.02;101742.81;15495628;28;20069;-63
2021/06/09 10:00:33;;;;;;;1999.90;999.90;;;;;;;32.49;30.29;101743.47;15503219;28;20134;-63
2021/06/09 10:08:05;;;;;;;1999.90;999.90;;;;;;;33.39;27.07;101732.66;15503235;28;20049;-62
2021/06/09 10:15:47;;;;;;;1999.90;999.90;;;;;;;34.74;28.14;101730.38;15501239;28;20034;-63
2021/06/09 10:23:33;;;;;;;1999.90;999.90;;;;;;;34.56;26.78;101733.19;15502408;28;20487;-62
2021/06/09 10:31:08;;;;;;;1999.90;999.90;;;;;;;34.39;25.53;101732.63;15500180;28;20070;-63
2021/06/09 10:38:40;;;;;;;1999.90;999.90;;;;;;;34.96;25.70;101727.41;15503181;28;20504;-63
2021/06/09 10:46:18;;;;;;;1999.90;999.90;;;;;;;35.04;27.11;101719.22;15500103;28;20105;-63
2021/06/09 10:53:52;;;;;;;1999.90;999.90;;;;;;;34.82;26.83;101717.22;15499080;28;20078;-62
2021/06/09 11:01:28;;;;;;;1999.90;999.90;;;;;;;35.69;25.09;101704.28;15499734;28;20042;-62
2021/06/09 11:09:11;;;;;;;1999.90;999.90;;;;;;;35.99;23.42;101695.88;15500294;28;20050;-63
2021/06/09 11:16:50;;;;;;;1999.90;999.90;;;;;;;37.21;24.50;101686.44;15497707;28;20474;-63
2021/06/09 11:24:21;;;;;;;1999.90;999.90;;;;;;;37.56;24.40;101677.13;15497060;28;20042;-63
2021/06/09 11:32:16;;;;;;;1999.90;999.90;;;;;;;37.00;21.79;101681.75;15496279;28;20061;-63
2021/06/09 11:39:58;;;;;;;1999.90;999.90;;;;;;;37.60;24.57;101666.06;15495744;28;20042;-63
2021/06/09 11:47:32;;;;;;;1999.90;999.90;;;;;;;37.15;22.83;101665.16;15496588;28;20169;-63
2021/06/09 11:55:09;;;;;;;1999.90;999.90;;;;;;;36.92;23.32;101663.88;15496461;28;20173;-63
2021/06/09 12:02:42;;;;;;;1999.90;999.90;;;;;;;36.53;21.30;101662.13;15494766;28;20160;-63
2021/06/09 12:10:13;;;;;;;1999.90;999.90;;;;;;;35.40;21.84;101635.13;15494901;28;20098;-63
2021/06/09 12:17:46;;;;;;;1999.90;999.90;;;;;;;35.01;22.08;101633.97;15494729;28;20466;-63
2021/06/09 12:25:21;;;;;;;1999.90;999.90;;;;;;;38.60;20.66;101631.25;15477433;28;20422;-63
2021/06/09 12:32:54;;;;;;;1999.90;999.90;;;;;;;39.98;18.79;101629.72;15495279;28;20054;-64
2021/06/09 12:40:28;;;;;;;1999.90;999.90;;;;;;;40.64;19.23;101620.66;15494853;28;20515;-64
2021/06/09 12:48:05;;;;;;;1999.90;999.90;;;;;;;41.59;18.26;101608.56;15494420;28;20050;-62
2021/06/09 12:55:39;;;;;;;1999.90;999.90;;;;;;;42.87;17.18;101610.56;15494946;28;20082;-61
2021/06/09 13:03:23;;;;;;;1999.90;999.90;;;;;;;40.04;20.20;101599.28;15486055;28;20053;-65
2021/06/09 13:11:03;;;;;;;1999.90;999.90;;;;;;;34.01;21.77;101573.63;15554657;28;20506;-64
2021/06/09 13:18:47;;;;;;;1999.90;999.90;;;;;;;33.76;25.56;101569.59;15553578;28;20435;-64
2021/06/09 13:26:20;;;;;;;1999.90;999.90;;;;;;;33.08;23.65;101556.13;15555279;28;20042;-61
2021/06/09 13:33:53;;;;;;;1999.90;999.90;;;;;;;33.70;26.37;101562.84;15565943;28;20050;-63
2021/06/09 13:41:24;;;;;;;1999.90;999.90;;;;;;;33.29;23.66;101544.56;15563345;28;20053;-60
2021/06/09 13:48:57;;;;;;;1999.90;999.90;;;;;;;32.23;27.06;101536.81;15564342;28;20076;-63
2021/06/09 13:56:32;;;;;;;1999.90;999.90;;;;;;;32.45;25.22;101529.06;15564082;28;20041;-59
2021/06/09 14:04:05;;;;;;;1999.90;999.90;;;;;;;31.34;27.81;101533.84;15564005;28;20069;-61
2021/06/09 14:11:55;;;;;;;1999.90;999.90;;;;;;;30.65;30.14;101516.88;15561902;28;20037;-63
2021/06/09 14:19:28;;;;;;;1999.90;999.90;;;;;;;31.26;31.00;101507.28;15562737;28;20042;-61
2021/06/09 14:27:03;;;;;;;1999.90;999.90;;;;;;;31.55;29.03;101504.34;15562475;28;20057;-62
2021/06/09 14:34:39;;;;;;;1999.90;999.90;;;;;;;30.34;28.32;101502.84;15560568;28;20392;-62
2021/06/09 14:42:10;;;;;;;1999.90;999.90;;;;;;;30.84;33.01;101489.97;15561411;28;20046;-61
2021/06/09 14:49:45;;;;;;;1999.90;999.90;;;;;;;31.33;30.26;101491.88;15560545;28;20129;-59
2021/06/09 14:57:17;;;;;;;1999.90;999.90;;;;;;;31.15;30.34;101481.63;15543177;28;20641;-59
2021/06/09 15:04:52;;;;;;;1999.90;999.90;;;;;;;30.54;29.96;101478.88;15543072;28;20140;-63
2021/06/09 15:12:26;;;;;;;1999.90;999.90;;;;;;;29.97;30.01;101466.75;15559828;28;20049;-61
2021/06/09 15:19:59;;;;;;;1999.90;999.90;;;;;;;29.70;32.63;101466.19;15559463;28;20104;-60
2021/06/09 15:27:31;;;;;;;1999.90;999.90;;;;;;;30.36;31.02;101468.66;15558743;28;20487;-63
2021/06/09 15:35:04;;;;;;;;;;;;;;;30.37;31.74;101463.69;15559519;28;20050;-65
2021/06/09 15:42:37;;;;;;;1999.90;999.90;;;;;;;29.95;31.80;101448.34;15558298;28;20008;-63
2021/06/09 15:50:12;;;;;;;1999.90;999.90;;;;;;;29.93;30.63;101451.66;15556110;28;20056;-64
2021/06/09 15:57:44;;;;;;;1999.90;999.90;;;;;;;29.68;32.05;101455.16;15556148;28;20092;-62
2021/06/09 16:05:17;;;;;;;1999.90;999.90;;;;;;;29.95;29.59;101442.59;15558296;28;20054;-61
2021/06/09 16:12:49;;;;;;;1999.90;999.90;;;;;;;29.83;30.88;101441.25;15556761;28;20045;-60
2021/06/09 16:20:22;;;;;;;1999.90;999.90;;;;;;;29.49;31.86;101421.50;15557769;28;20046;-63
2021/06/09 16:27:54;;;;;;;1999.90;999.90;;;;;;;29.17;33.23;101419.34;15556094;28;20046;-60
2021/06/09 16:35:27;;;;;;;1999.90;999.90;;;;;;;29.00;32.61;101430.00;15558112;28;20530;-60
2021/06/09 16:43:00;;;;;;;1999.90;999.90;;;;;;;29.20;35.38;101425.03;15557979;28;20034;-62
2021/06/09 16:50:34;;;;;;;1999.90;999.90;;;;;;;28.52;32.61;101417.00;15544511;28;20125;-60
2021/06/09 17:05:56;;;;;;;1999.90;999.90;;;;;;;28.45;35.46;101426.59;15580451;28;20042;-61
2021/06/09 17:13:28;;;;;;;1999.90;999.90;;;;;;;28.05;34.46;101414.19;15572772;28;20030;-63
2021/06/09 17:21:01;;;;;;;1999.90;999.90;;;;;;;27.98;35.08;101417.19;15556433;28;20422;-63
2021/06/09 17:28:33;;;;;;;1999.90;999.90;;;;;;;27.83;34.38;101416.63;15573942;28;20048;-65
2021/06/09 17:36:07;;;;;;;1999.90;999.90;;;;;;;27.88;34.69;101416.13;15572086;28;20084;-65
2021/06/09 17:43:39;;;;;;;1999.90;999.90;;;;;;;27.62;34.94;101414.09;15573173;28;20049;-63
2021/06/09 17:51:12;;;;;;;1999.90;999.90;;;;;;;27.44;35.89;101417.22;15573140;28;20505;-61
2021/06/09 17:58:44;;;;;;;1999.90;999.90;;;;;;;27.42;35.05;101418.91;15572971;28;20422;-62
2021/06/09 18:06:17;;;;;;;1999.90;999.90;;;;;;;27.33;38.13;101416.59;15572654;28;20045;-65
2021/06/09 18:13:49;;;;;;;1999.90;999.90;;;;;;;27.13;37.90;101416.47;15566492;28;20517;-61
2021/06/09 18:21:22;;;;;;;;;;;;;;;27.04;38.22;101408.38;15563791;28;20064;-66
2021/06/09 18:28:54;;;;;;;1999.90;999.90;;;;;;;26.68;38.13;101410.06;15562659;28;20349;-64
2021/06/09 18:36:27;;;;;;;1999.90;999.90;;;;;;;26.61;38.55;101408.09;15561865;28;20145;-65
2021/06/09 18:43:59;;;;;;;1999.90;999.90;;;;;;;26.41;39.65;101413.63;15560841;28;20487;-64
2021/06/09 18:51:33;;;;;;;1999.90;999.90;;;;;;;26.16;39.06;101415.94;15562147;28;20112;-65
2021/06/09 18:59:05;;;;;;;1999.90;999.90;;;;;;;25.89;40.17;101422.28;15627332;22;20064;-65
2021/06/09 19:06:38;;;;;;;1999.90;999.90;;;;;;;25.67;40.63;101440.00;15678765;28;20108;-63
2021/06/09 19:14:11;;;;;;;1999.90;999.90;;;;;;;25.40;41.83;101446.31;15653227;28;20055;-63
2021/06/09 19:21:44;;;;;;;;;;;;;;;25.20;41.31;101454.56;15673933;28;20064;-63
2021/06/09 19:29:16;;;;;;;1999.90;999.90;;;;;;;24.82;43.21;101452.72;15633193;28;20084;-62
2021/06/09 19:36:51;;;;;;;1999.90;999.90;;;;;;;24.55;43.01;101460.94;15676255;28;20041;-64
2021/06/09 19:44:23;;;;;;;1999.90;999.90;;;;;;;24.29;43.88;101465.84;15660382;28;20057;-63
2021/06/09 19:51:56;;;;;;;1999.90;999.90;;;;;;;24.03;44.64;101467.06;15677924;28;20157;-64
2021/06/09 19:59:27;;;;;;;1999.90;999.90;;;;;;;23.79;45.08;101470.75;15674821;28;20049;-64
2021/06/09 20:07:00;;;;;;;1999.90;999.90;;;;;;;23.57;46.78;101470.69;15674116;28;20043;-64
2021/06/09 20:14:32;;;;;;;1999.90;999.90;;;;;;;23.18;46.51;101467.72;15674107;28;20171;-64
2021/06/09 20:22:05;;;;;;;1999.90;999.90;;;;;;;22.90;47.77;101474.13;15675518;28;20068;-64
2021/06/09 20:29:37;;;;;;;1999.90;999.90;;;;;;;22.66;48.22;101472.75;15672992;28;20067;-64
2021/06/09 20:37:10;;;;;;;1999.90;999.90;;;;;;;22.42;49.04;101481.97;15672674;28;20049;-63
2021/06/09 20:44:42;;;;;;;1999.90;999.90;;;;;;;22.16;49.73;101477.28;15667739;28;20528;-64
2021/06/09 20:52:15;;;;;;;1999.90;999.90;;;;;;;21.93;50.02;101473.81;15670937;28;20044;-62
2021/06/09 20:59:47;;;;;;;1999.90;999.90;;;;;;;21.84;50.91;101486.31;15671572;28;20052;-60
2021/06/09 21:07:20;;;;;;;1999.90;999.90;;;;;;;21.81;52.41;101474.94;15671033;28;20049;-62
2021/06/09 21:14:52;;;;;;;1999.90;999.90;;;;;;;21.82;52.10;101473.72;15668887;28;20075;-61
2021/06/09 21:22:25;;;;;;;1999.90;999.90;;;;;;;21.74;52.76;101475.69;15671298;28;20064;-62
2021/06/09 21:29:56;;;;;;;;;;;;;;;21.84;51.58;101474.97;15671823;28;20045;-60
2021/06/09 21:37:30;;;;;;;1999.90;999.90;;;;;;;21.79;53.24;101458.28;15653132;28;19920;-61
2021/06/09 21:45:02;;;;;;;1999.90;999.90;;;;;;;21.77;53.44;101468.38;15670531;28;20041;-62
2021/06/09 21:52:35;;;;;;;1999.90;999.90;;;;;;;21.55;53.67;101470.22;15681576;28;20044;-62
2021/06/09 22:00:09;;;;;;;;;;;;;;;21.69;53.39;101461.03;15679964;28;20041;-62
2021/06/09 22:07:45;;;;;;;1999.90;999.90;;;;;;;21.74;53.04;101463.50;15681228;28;20397;-62
2021/06/09 22:15:17;;;;;;;1999.90;999.90;;;;;;;21.73;53.14;101474.03;15662469;28;20053;-61
2021/06/09 22:22:50;;;;;;;1999.90;999.90;;;;;;;21.66;53.59;101461.78;15679898;28;20064;-62
2021/06/09 22:30:22;;;;;;;1999.90;999.90;;;;;;;21.45;54.01;101462.41;15677906;28;20174;-62
2021/06/09 22:37:55;;;;;;;1999.90;999.90;;;;;;;21.30;54.43;101462.25;15679160;28;20045;-62
2021/06/09 22:45:26;;;;;;;1999.90;999.90;;;;;;;21.08;55.72;101453.84;15678913;28;20052;-61
2021/06/09 22:52:59;;;;;;;1999.90;999.90;;;;;;;20.88;56.79;101456.84;15677332;28;20076;-60
2021/06/09 23:00:31;;;;;;;1999.90;999.90;;;;;;;20.83;57.14;101462.84;15678909;28;20068;-62
2021/06/09 23:08:04;;;;;;;1999.90;999.90;;;;;;;20.55;56.20;101476.66;15674917;28;20450;-61
2021/06/09 23:15:36;;;;;;;1999.90;999.90;;;;;;;20.42;55.18;101473.19;15673732;28;20052;-62
2021/06/09 23:23:09;;;;;;;1999.90;999.90;;;;;;;20.38;54.70;101475.16;15677280;28;20151;-62
2021/06/09 23:30:41;;;;;;;1999.90;999.90;;;;;;;20.19;55.47;101457.06;15677850;28;20700;-62
2021/06/09 23:38:14;;;;;;;1999.90;999.90;;;;;;;20.04;56.48;101466.53;15676118;28;20119;-62
2021/06/09 23:45:45;;;;;;;1999.90;999.90;;;;;;;19.91;56.84;101459.44;15677457;28;20041;-62
2021/06/09 23:53:19;;;;;;;1999.90;999.90;;;;;;;19.81;57.90;101457.25;15676464;28;20040;-62
